sensor_id;sensor_type;location;lat;lon;timestamp;pressure;altitude;pressure_sealevel;temperature;humidity
6778;BME280;3426;52.244;10.534;2023-02-22T00:01:32;100803.72;;;12.70;69.91
6778;BME280;3426;52.244;10.534;2023-02-22T00:04:05;100808.69;;;12.76;69.47
6778;BME280;3426;52.244;10.534;2023-02-22T00:06:31;100805.38;;;12.72;69.57
6778;BME280;3426;52.244;10.534;2023-02-22T00:08:58;100804.31;;;12.75;69.07
6778;BME280;3426;52.244;10.534;2023-02-22T00:11:25;100809.47;;;12.78;69.53
6778;BME280;3426;52.244;10.534;2023-02-22T00:13:52;100812.50;;;12.72;68.86
6778;BME280;3426;52.244;10.534;2023-02-22T00:16:23;100797.50;;;12.71;69.21
6778;BME280;3426;52.244;10.534;2023-02-22T00:18:51;100799.66;;;12.64;69.17
6778;BME280;3426;52.244;10.534;2023-02-22T00:21:18;100803.16;;;12.51;70.47
6778;BME280;3426;52.244;10.534;2023-02-22T00:23:46;100801.97;;;12.40;71.04
6778;BME280;3426;52.244;10.534;2023-02-22T00:26:15;100799.16;;;12.43;70.46
6778;BME280;3426;52.244;10.534;2023-02-22T00:28:47;100807.50;;;12.52;71.18
6778;BME280;3426;52.244;10.534;2023-02-22T00:31:14;100811.78;;;12.54;69.98
6778;BME280;3426;52.244;10.534;2023-02-22T00:33:41;100804.41;;;12.59;70.00
6778;BME280;3426;52.244;10.534;2023-02-22T00:36:10;100792.72;;;12.62;70.28
6778;BME280;3426;52.244;10.534;2023-02-22T00:38:37;100790.06;;;12.62;70.44
6778;BME280;3426;52.244;10.534;2023-02-22T00:41:04;100796.81;;;12.67;70.02
6778;BME280;3426;52.244;10.534;2023-02-22T00:43:30;100795.19;;;12.65;69.86
6778;BME280;3426;52.244;10.534;2023-02-22T00:45:57;100792.53;;;12.65;69.70
6778;BME280;3426;52.244;10.534;2023-02-22T00:48:23;100792.53;;;12.65;69.54
6778;BME280;3426;52.244;10.534;2023-02-22T00:50:50;100787.41;;;12.62;70.20
6778;BME280;3426;52.244;10.534;2023-02-22T00:53:21;100788.25;;;12.62;70.28
6778;BME280;3426;52.244;10.534;2023-02-22T00:55:48;100781.16;;;12.63;69.98
6778;BME280;3426;52.244;10.534;2023-02-22T00:58:15;100788.16;;;12.50;70.57
6778;BME280;3426;52.244;10.534;2023-02-22T01:00:42;100785.22;;;12.54;70.41
6778;BME280;3426;52.244;10.534;2023-02-22T01:03:11;100783.97;;;12.45;70.11
6778;BME280;3426;52.244;10.534;2023-02-22T01:05:38;100782.16;;;12.32;70.48
6778;BME280;3426;52.244;10.534;2023-02-22T01:08:06;100783.59;;;12.37;71.15
6778;BME280;3426;52.244;10.534;2023-02-22T01:10:37;100773.44;;;12.44;70.79
6778;BME280;3426;52.244;10.534;2023-02-22T01:13:06;100782.44;;;12.41;71.10
6778;BME280;3426;52.244;10.534;2023-02-22T01:15:36;100787.88;;;12.54;70.56
6778;BME280;3426;52.244;10.534;2023-02-22T01:18:06;100777.53;;;12.50;70.32
6778;BME280;3426;52.244;10.534;2023-02-22T01:20:33;100770.00;;;12.42;69.99
6778;BME280;3426;52.244;10.534;2023-02-22T01:23:18;100773.66;;;12.25;71.26
6778;BME280;3426;52.244;10.534;2023-02-22T01:25:44;100775.41;;;12.40;71.23
6778;BME280;3426;52.244;10.534;2023-02-22T01:31:57;100765.00;;;12.37;70.34
6778;BME280;3426;52.244;10.534;2023-02-22T01:34:24;100759.22;;;12.45;70.45
6778;BME280;3426;52.244;10.534;2023-02-22T01:37:23;100760.81;;;12.47;70.53
6778;BME280;3426;52.244;10.534;2023-02-22T01:40:33;100749.63;;;12.42;70.77
6778;BME280;3426;52.244;10.534;2023-02-22T01:43:26;100752.25;;;12.28;69.92
6778;BME280;3426;52.244;10.534;2023-02-22T01:46:31;100753.97;;;12.29;70.35
6778;BME280;3426;52.244;10.534;2023-02-22T01:49:13;100747.13;;;12.25;71.17
6778;BME280;3426;52.244;10.534;2023-02-22T01:51:48;100752.09;;;12.45;70.61
6778;BME280;3426;52.244;10.534;2023-02-22T01:54:32;100749.91;;;12.52;70.88
6778;BME280;3426;52.244;10.534;2023-02-22T02:00:02;100741.81;;;11.95;72.24
6778;BME280;3426;52.244;10.534;2023-02-22T02:03:39;100739.72;;;12.30;71.13
6778;BME280;3426;52.244;10.534;2023-02-22T02:10:08;100730.91;;;12.15;71.45
6778;BME280;3426;52.244;10.534;2023-02-22T02:12:24;100733.19;;;11.76;72.27
6778;BME280;3426;52.244;10.534;2023-02-22T02:14:52;100732.78;;;11.67;73.35
6778;BME280;3426;52.244;10.534;2023-02-22T02:17:21;100731.31;;;11.62;73.78
6778;BME280;3426;52.244;10.534;2023-02-22T02:40:51;100716.50;;;11.74;71.53
6778;BME280;3426;52.244;10.534;2023-02-22T02:43:39;100719.44;;;11.69;70.90
6778;BME280;3426;52.244;10.534;2023-02-22T02:46:24;100716.00;;;11.67;70.46
6778;BME280;3426;52.244;10.534;2023-02-22T02:49:26;100718.75;;;11.65;71.25
6778;BME280;3426;52.244;10.534;2023-02-22T02:52:17;100710.81;;;11.50;70.71
6778;BME280;3426;52.244;10.534;2023-02-22T02:54:45;100714.56;;;11.46;71.09
6778;BME280;3426;52.244;10.534;2023-02-22T02:57:32;100711.34;;;11.25;72.20
6778;BME280;3426;52.244;10.534;2023-02-22T03:00:19;100716.31;;;11.31;71.62
6778;BME280;3426;52.244;10.534;2023-02-22T03:03:28;100710.25;;;11.29;71.28
6778;BME280;3426;52.244;10.534;2023-02-22T03:24:26;100697.13;;;10.94;71.09
6778;BME280;3426;52.244;10.534;2023-02-22T03:27:30;100691.22;;;10.89;70.41
6778;BME280;3426;52.244;10.534;2023-02-22T03:30:04;100695.97;;;10.84;71.04
6778;BME280;3426;52.244;10.534;2023-02-22T03:32:38;100698.88;;;10.46;72.30
6778;BME280;3426;52.244;10.534;2023-02-22T03:35:24;100704.03;;;10.65;71.40
6778;BME280;3426;52.244;10.534;2023-02-22T03:37:57;100705.66;;;10.68;70.66
6778;BME280;3426;52.244;10.534;2023-02-22T03:40:32;100706.84;;;10.62;71.12
6778;BME280;3426;52.244;10.534;2023-02-22T03:43:06;100707.13;;;10.40;71.48
6778;BME280;3426;52.244;10.534;2023-02-22T03:45:43;100703.97;;;10.33;71.73
6778;BME280;3426;52.244;10.534;2023-02-22T03:51:46;100700.75;;;10.44;71.33
6778;BME280;3426;52.244;10.534;2023-02-22T03:54:14;100695.50;;;10.43;70.80
6778;BME280;3426;52.244;10.534;2023-02-22T03:56:48;100704.56;;;10.04;72.05
6778;BME280;3426;52.244;10.534;2023-02-22T03:59:15;100699.22;;;9.88;72.93
6778;BME280;3426;52.244;10.534;2023-02-22T04:01:45;100696.78;;;10.18;73.19
6778;BME280;3426;52.244;10.534;2023-02-22T04:04:11;100698.06;;;10.28;72.10
6778;BME280;3426;52.244;10.534;2023-02-22T04:06:47;100698.47;;;10.19;71.77
6778;BME280;3426;52.244;10.534;2023-02-22T04:09:14;100695.41;;;9.94;72.95
6778;BME280;3426;52.244;10.534;2023-02-22T04:11:41;100692.66;;;10.13;73.41
6778;BME280;3426;52.244;10.534;2023-02-22T04:14:08;100695.53;;;10.08;73.62
6778;BME280;3426;52.244;10.534;2023-02-22T04:16:34;100695.53;;;10.08;73.91
6778;BME280;3426;52.244;10.534;2023-02-22T04:19:01;100696.91;;;10.15;74.08
6778;BME280;3426;52.244;10.534;2023-02-22T04:21:27;100697.09;;;9.95;74.67
6778;BME280;3426;52.244;10.534;2023-02-22T04:23:58;100699.66;;;9.79;76.34
6778;BME280;3426;52.244;10.534;2023-02-22T04:26:25;100698.06;;;9.94;76.54
6778;BME280;3426;52.244;10.534;2023-02-22T04:28:59;100692.59;;;9.97;76.53
6778;BME280;3426;52.244;10.534;2023-02-22T04:31:25;100700.22;;;9.86;77.19
6778;BME280;3426;52.244;10.534;2023-02-22T04:33:52;100684.50;;;9.82;76.64
6778;BME280;3426;52.244;10.534;2023-02-22T04:36:44;100684.31;;;9.51;79.18
6778;BME280;3426;52.244;10.534;2023-02-22T04:39:14;100690.97;;;9.41;79.60
6778;BME280;3426;52.244;10.534;2023-02-22T04:41:40;100691.03;;;9.75;78.55
6778;BME280;3426;52.244;10.534;2023-02-22T04:44:15;100689.16;;;10.12;77.39
6778;BME280;3426;52.244;10.534;2023-02-22T04:46:42;100684.31;;;10.20;75.94
6778;BME280;3426;52.244;10.534;2023-02-22T04:49:15;100683.56;;;9.66;79.86
6778;BME280;3426;52.244;10.534;2023-02-22T04:51:44;100680.75;;;9.69;79.85
6778;BME280;3426;52.244;10.534;2023-02-22T04:54:16;100680.44;;;9.58;80.03
6778;BME280;3426;52.244;10.534;2023-02-22T04:56:50;100683.16;;;9.56;80.20
6778;BME280;3426;52.244;10.534;2023-02-22T04:59:17;100687.47;;;9.94;77.84
6778;BME280;3426;52.244;10.534;2023-02-22T05:01:45;100680.44;;;9.75;80.09
6778;BME280;3426;52.244;10.534;2023-02-22T05:04:11;100675.09;;;9.77;79.72
6778;BME280;3426;52.244;10.534;2023-02-22T05:06:44;100675.09;;;9.60;80.24
6778;BME280;3426;52.244;10.534;2023-02-22T05:09:11;100684.34;;;9.86;80.23
6778;BME280;3426;52.244;10.534;2023-02-22T05:11:55;100666.34;;;10.09;79.24
6778;BME280;3426;52.244;10.534;2023-02-22T05:14:22;100668.72;;;9.98;78.76
6778;BME280;3426;52.244;10.534;2023-02-22T05:16:56;100666.63;;;9.88;79.26
6778;BME280;3426;52.244;10.534;2023-02-22T05:19:23;100671.38;;;9.98;78.38
6778;BME280;3426;52.244;10.534;2023-02-22T05:21:49;100672.28;;;9.97;78.33
6778;BME280;3426;52.244;10.534;2023-02-22T05:24:16;100667.63;;;9.85;79.14
6778;BME280;3426;52.244;10.534;2023-02-22T05:26:45;100673.84;;;10.01;78.46
6778;BME280;3426;52.244;10.534;2023-02-22T05:29:14;100670.41;;;9.99;78.02
6778;BME280;3426;52.244;10.534;2023-02-22T05:31:44;100657.78;;;10.55;74.99
6778;BME280;3426;52.244;10.534;2023-02-22T05:34:11;100666.06;;;9.98;76.47
6778;BME280;3426;52.244;10.534;2023-02-22T05:36:46;100666.72;;;10.37;75.65
6778;BME280;3426;52.244;10.534;2023-02-22T05:39:12;100667.28;;;10.08;75.51
6778;BME280;3426;52.244;10.534;2023-02-22T05:41:39;100659.72;;;10.18;76.00
6778;BME280;3426;52.244;10.534;2023-02-22T05:44:15;100660.66;;;10.17;76.14
6778;BME280;3426;52.244;10.534;2023-02-22T05:46:41;100661.28;;;10.40;74.91
6778;BME280;3426;52.244;10.534;2023-02-22T05:49:17;100653.66;;;10.49;74.48
6778;BME280;3426;52.244;10.534;2023-02-22T05:51:46;100662.22;;;10.39;73.52
6778;BME280;3426;52.244;10.534;2023-02-22T05:54:15;100659.97;;;10.14;74.19
6778;BME280;3426;52.244;10.534;2023-02-22T05:56:42;100661.19;;;10.41;73.52
6778;BME280;3426;52.244;10.534;2023-02-22T05:59:08;100651.47;;;10.57;72.85
6778;BME280;3426;52.244;10.534;2023-02-22T06:01:35;100661.38;;;10.54;72.64
6778;BME280;3426;52.244;10.534;2023-02-22T06:04:01;100661.50;;;10.35;72.99
6778;BME280;3426;52.244;10.534;2023-02-22T06:06:28;100659.72;;;10.35;72.36
6778;BME280;3426;52.244;10.534;2023-02-22T06:08:54;100656.63;;;10.10;72.94
6778;BME280;3426;52.244;10.534;2023-02-22T06:11:21;100661.59;;;10.16;73.91
6778;BME280;3426;52.244;10.534;2023-02-22T06:13:49;100662.75;;;10.45;72.95
6778;BME280;3426;52.244;10.534;2023-02-22T06:16:17;100664.94;;;10.37;72.37
6778;BME280;3426;52.244;10.534;2023-02-22T06:18:44;100656.66;;;10.43;71.73
6778;BME280;3426;52.244;10.534;2023-02-22T06:21:10;100660.34;;;10.41;73.07
6778;BME280;3426;52.244;10.534;2023-02-22T06:23:37;100655.66;;;10.46;73.08
6778;BME280;3426;52.244;10.534;2023-02-22T06:26:04;100649.53;;;10.61;72.31
6778;BME280;3426;52.244;10.534;2023-02-22T06:28:30;100646.88;;;10.61;72.28
6778;BME280;3426;52.244;10.534;2023-02-22T06:30:57;100641.31;;;10.66;72.39
6778;BME280;3426;52.244;10.534;2023-02-22T06:33:23;100643.09;;;10.65;72.52
6778;BME280;3426;52.244;10.534;2023-02-22T06:35:49;100634.47;;;10.77;71.81
6778;BME280;3426;52.244;10.534;2023-02-22T06:38:23;100642.34;;;10.63;72.26
6778;BME280;3426;52.244;10.534;2023-02-22T06:40:50;100636.56;;;10.72;72.16
6778;BME280;3426;52.244;10.534;2023-02-22T06:43:17;100646.34;;;10.39;72.30
6778;BME280;3426;52.244;10.534;2023-02-22T06:45:43;100647.84;;;10.43;73.81
6778;BME280;3426;52.244;10.534;2023-02-22T06:48:10;100636.72;;;10.69;71.87
6778;BME280;3426;52.244;10.534;2023-02-22T06:50:36;100644.31;;;10.75;71.42
6778;BME280;3426;52.244;10.534;2023-02-22T06:53:03;100637.56;;;10.70;71.41
6778;BME280;3426;52.244;10.534;2023-02-22T06:55:32;100643.22;;;10.13;74.33
6778;BME280;3426;52.244;10.534;2023-02-22T06:57:59;100633.88;;;10.56;71.39
6778;BME280;3426;52.244;10.534;2023-02-22T07:00:38;100631.84;;;10.77;71.29
6778;BME280;3426;52.244;10.534;2023-02-22T07:03:04;100633.63;;;11.24;70.42
6778;BME280;3426;52.244;10.534;2023-02-22T07:05:31;100638.25;;;10.24;72.15
6778;BME280;3426;52.244;10.534;2023-02-22T07:08:05;100634.47;;;10.77;70.00
6778;BME280;3426;52.244;10.534;2023-02-22T07:10:33;100641.34;;;10.81;70.47
6778;BME280;3426;52.244;10.534;2023-02-22T07:13:01;100629.66;;;11.31;68.93
6778;BME280;3426;52.244;10.534;2023-02-22T07:15:29;100636.28;;;10.93;69.68
6778;BME280;3426;52.244;10.534;2023-02-22T07:17:56;100642.19;;;11.13;69.84
6778;BME280;3426;52.244;10.534;2023-02-22T07:20:24;100643.19;;;11.57;68.03
6778;BME280;3426;52.244;10.534;2023-02-22T07:22:52;100643.53;;;11.36;68.90
6778;BME280;3426;52.244;10.534;2023-02-22T07:25:19;100646.22;;;11.81;67.78
6778;BME280;3426;52.244;10.534;2023-02-22T07:27:46;100632.16;;;11.94;67.54
6778;BME280;3426;52.244;10.534;2023-02-22T07:30:18;100647.31;;;11.92;67.80
6778;BME280;3426;52.244;10.534;2023-02-22T07:32:46;100638.94;;;11.84;66.84
6778;BME280;3426;52.244;10.534;2023-02-22T07:35:14;100640.59;;;11.71;67.67
6778;BME280;3426;52.244;10.534;2023-02-22T07:37:42;100637.56;;;12.07;67.12
6778;BME280;3426;52.244;10.534;2023-02-22T07:40:09;100639.44;;;11.61;67.34
6778;BME280;3426;52.244;10.534;2023-02-22T07:42:58;100637.66;;;11.00;69.85
6778;BME280;3426;52.244;10.534;2023-02-22T07:45:29;100637.84;;;11.12;69.19
6778;BME280;3426;52.244;10.534;2023-02-22T07:47:57;100631.91;;;11.69;67.47
6778;BME280;3426;52.244;10.534;2023-02-22T07:50:25;100629.38;;;11.82;66.67
6778;BME280;3426;52.244;10.534;2023-02-22T07:52:54;100629.34;;;12.55;65.48
6778;BME280;3426;52.244;10.534;2023-02-22T07:55:22;100630.66;;;12.47;63.90
6778;BME280;3426;52.244;10.534;2023-02-22T07:57:51;100630.44;;;12.08;64.72
6778;BME280;3426;52.244;10.534;2023-02-22T08:02:53;100630.63;;;13.84;60.95
6778;BME280;3426;52.244;10.534;2023-02-22T08:05:23;100628.94;;;13.96;59.29
6778;BME280;3426;52.244;10.534;2023-02-22T08:07:49;100631.06;;;13.91;59.00
6778;BME280;3426;52.244;10.534;2023-02-22T08:10:19;100630.22;;;14.41;57.92
6778;BME280;3426;52.244;10.534;2023-02-22T08:12:45;100630.63;;;13.84;59.12
6778;BME280;3426;52.244;10.534;2023-02-22T08:15:21;100632.88;;;14.41;56.50
6778;BME280;3426;52.244;10.534;2023-02-22T08:17:49;100631.22;;;14.77;57.02
6778;BME280;3426;52.244;10.534;2023-02-22T08:20:16;100626.03;;;14.99;55.17
6778;BME280;3426;52.244;10.534;2023-02-22T08:22:43;100624.13;;;14.52;56.66
6778;BME280;3426;52.244;10.534;2023-02-22T08:25:10;100622.69;;;15.08;55.89
6778;BME280;3426;52.244;10.534;2023-02-22T08:27:37;100631.72;;;14.20;56.07
6778;BME280;3426;52.244;10.534;2023-02-22T08:30:04;100624.50;;;15.08;54.51
6778;BME280;3426;52.244;10.534;2023-02-22T08:32:31;100620.41;;;15.63;54.09
6778;BME280;3426;52.244;10.534;2023-02-22T08:34:58;100617.50;;;15.42;52.97
6778;BME280;3426;52.244;10.534;2023-02-22T08:37:24;100617.09;;;14.51;54.88
6778;BME280;3426;52.244;10.534;2023-02-22T08:39:52;100618.31;;;15.07;53.83
6778;BME280;3426;52.244;10.534;2023-02-22T08:42:18;100620.72;;;15.94;52.47
6778;BME280;3426;52.244;10.534;2023-02-22T08:44:45;100633.84;;;14.15;55.46
6778;BME280;3426;52.244;10.534;2023-02-22T08:47:11;100621.56;;;15.00;54.36
6778;BME280;3426;52.244;10.534;2023-02-22T08:49:38;100609.88;;;15.37;53.53
6778;BME280;3426;52.244;10.534;2023-02-22T08:52:04;100612.72;;;15.94;52.54
6778;BME280;3426;52.244;10.534;2023-02-22T08:54:31;100609.59;;;16.33;50.92
6778;BME280;3426;52.244;10.534;2023-02-22T08:56:57;100601.63;;;17.10;49.43
6778;BME280;3426;52.244;10.534;2023-02-22T08:59:24;100601.44;;;17.87;48.08
6778;BME280;3426;52.244;10.534;2023-02-22T09:01:50;100599.50;;;18.91;45.27
6778;BME280;3426;52.244;10.534;2023-02-22T09:04:17;100598.38;;;17.39;47.35
6778;BME280;3426;52.244;10.534;2023-02-22T09:06:43;100593.44;;;16.91;49.76
6778;BME280;3426;52.244;10.534;2023-02-22T09:09:13;100598.78;;;18.18;46.98
6778;BME280;3426;52.244;10.534;2023-02-22T09:11:40;100596.56;;;18.23;46.59
6778;BME280;3426;52.244;10.534;2023-02-22T09:14:06;100589.50;;;18.22;45.90
6778;BME280;3426;52.244;10.534;2023-02-22T09:16:32;100594.72;;;18.23;45.79
6778;BME280;3426;52.244;10.534;2023-02-22T09:18:59;100593.63;;;17.10;48.24
6778;BME280;3426;52.244;10.534;2023-02-22T09:21:25;100589.13;;;17.00;49.25
6778;BME280;3426;52.244;10.534;2023-02-22T09:23:52;100584.41;;;19.09;45.80
6778;BME280;3426;52.244;10.534;2023-02-22T09:26:19;100587.97;;;17.78;46.59
6778;BME280;3426;52.244;10.534;2023-02-22T09:28:49;100577.97;;;20.07;43.64
6778;BME280;3426;52.244;10.534;2023-02-22T09:31:16;100578.34;;;19.26;43.46
6778;BME280;3426;52.244;10.534;2023-02-22T09:33:43;100570.75;;;20.82;41.50
6778;BME280;3426;52.244;10.534;2023-02-22T09:36:12;100565.72;;;20.32;41.78
6778;BME280;3426;52.244;10.534;2023-02-22T09:38:39;100568.81;;;19.90;42.06
6778;BME280;3426;52.244;10.534;2023-02-22T09:41:15;100566.19;;;19.22;44.32
6778;BME280;3426;52.244;10.534;2023-02-22T09:44:06;100559.53;;;18.97;44.03
6778;BME280;3426;52.244;10.534;2023-02-22T09:46:37;100553.47;;;19.53;43.47
6778;BME280;3426;52.244;10.534;2023-02-22T09:54:44;100559.38;;;17.46;48.56
6778;BME280;3426;52.244;10.534;2023-02-22T09:57:15;100560.31;;;17.56;47.54
6778;BME280;3426;52.244;10.534;2023-02-22T09:59:56;100556.75;;;15.81;51.94
6778;BME280;3426;52.244;10.534;2023-02-22T10:02:29;100549.41;;;16.84;50.50
6778;BME280;3426;52.244;10.534;2023-02-22T10:05:08;100554.72;;;16.29;51.79
6778;BME280;3426;52.244;10.534;2023-02-22T10:07:45;100559.56;;;15.44;55.26
6778;BME280;3426;52.244;10.534;2023-02-22T10:10:17;100556.97;;;15.67;54.26
6778;BME280;3426;52.244;10.534;2023-02-22T10:15:33;100546.34;;;15.54;55.62
6778;BME280;3426;52.244;10.534;2023-02-22T10:23:35;100539.81;;;15.23;56.91
6778;BME280;3426;52.244;10.534;2023-02-22T10:29:17;100535.75;;;15.06;57.21
6778;BME280;3426;52.244;10.534;2023-02-22T10:31:56;100523.91;;;15.56;56.63
6778;BME280;3426;52.244;10.534;2023-02-22T10:34:26;100530.53;;;15.86;55.54
6778;BME280;3426;52.244;10.534;2023-02-22T10:37:02;100528.47;;;15.89;55.96
6778;BME280;3426;52.244;10.534;2023-02-22T10:39:35;100524.59;;;15.47;57.03
6778;BME280;3426;52.244;10.534;2023-02-22T10:42:05;100525.84;;;15.54;57.17
6778;BME280;3426;52.244;10.534;2023-02-22T10:44:37;100525.59;;;15.57;57.17
6778;BME280;3426;52.244;10.534;2023-02-22T10:47:07;100521.44;;;15.77;56.52
6778;BME280;3426;52.244;10.534;2023-02-22T10:49:47;100513.03;;;16.27;55.13
6778;BME280;3426;52.244;10.534;2023-02-22T10:54:49;100529.22;;;15.10;59.74
6778;BME280;3426;52.244;10.534;2023-02-22T10:57:23;100523.69;;;14.89;60.33
6778;BME280;3426;52.244;10.534;2023-02-22T10:59:51;100517.81;;;15.43;59.27
6778;BME280;3426;52.244;10.534;2023-02-22T11:04:48;100511.25;;;15.47;58.62
6778;BME280;3426;52.244;10.534;2023-02-22T11:09:56;100508.56;;;15.36;59.94
6778;BME280;3426;52.244;10.534;2023-02-22T11:17:46;100503.03;;;15.50;59.72
6778;BME280;3426;52.244;10.534;2023-02-22T11:20:18;100520.44;;;14.97;61.79
6778;BME280;3426;52.244;10.534;2023-02-22T11:22:58;100504.97;;;14.78;62.77
6778;BME280;3426;52.244;10.534;2023-02-22T11:25:31;100504.47;;;15.43;60.41
6778;BME280;3426;52.244;10.534;2023-02-22T11:30:41;100499.56;;;15.15;61.55
6778;BME280;3426;52.244;10.534;2023-02-22T11:33:20;100499.25;;;15.42;60.83
6778;BME280;3426;52.244;10.534;2023-02-22T11:36:00;100491.59;;;15.02;61.58
6778;BME280;3426;52.244;10.534;2023-02-22T11:38:31;100486.53;;;15.45;60.88
6778;BME280;3426;52.244;10.534;2023-02-22T11:43:31;100482.69;;;15.25;61.67
6778;BME280;3426;52.244;10.534;2023-02-22T11:46:10;100473.38;;;15.77;59.88
6778;BME280;3426;52.244;10.534;2023-02-22T11:48:41;100459.13;;;15.54;61.29
6778;BME280;3426;52.244;10.534;2023-02-22T11:51:19;100461.53;;;15.57;61.15
6778;BME280;3426;52.244;10.534;2023-02-22T11:53:55;100458.19;;;16.00;59.58
6778;BME280;3426;52.244;10.534;2023-02-22T11:56:33;100447.97;;;15.49;61.25
6778;BME280;3426;52.244;10.534;2023-02-22T12:19:18;100440.72;;;15.74;59.70
6778;BME280;3426;52.244;10.534;2023-02-22T12:21:52;100426.13;;;15.55;60.56
6778;BME280;3426;52.244;10.534;2023-02-22T12:24:34;100431.00;;;16.38;58.80
6778;BME280;3426;52.244;10.534;2023-02-22T12:27:21;100427.22;;;16.52;58.00
6778;BME280;3426;52.244;10.534;2023-02-22T12:30:04;100431.47;;;16.00;59.48
6778;BME280;3426;52.244;10.534;2023-02-22T12:32:45;100419.84;;;15.68;61.08
6778;BME280;3426;52.244;10.534;2023-02-22T12:35:31;100427.72;;;15.92;59.93
6778;BME280;3426;52.244;10.534;2023-02-22T12:38:27;100428.56;;;15.70;61.34
6778;BME280;3426;52.244;10.534;2023-02-22T12:41:06;100413.72;;;15.99;59.78
6778;BME280;3426;52.244;10.534;2023-02-22T12:43:43;100408.53;;;16.41;58.69
6778;BME280;3426;52.244;10.534;2023-02-22T12:46:22;100411.53;;;16.04;59.62
6778;BME280;3426;52.244;10.534;2023-02-22T12:49:16;100413.19;;;16.28;58.95
6778;BME280;3426;52.244;10.534;2023-02-22T12:54:20;100399.44;;;16.00;60.07
6778;BME280;3426;52.244;10.534;2023-02-22T12:59:31;100398.31;;;16.78;57.77
6778;BME280;3426;52.244;10.534;2023-02-22T13:04:37;100402.56;;;16.05;58.83
6778;BME280;3426;52.244;10.534;2023-02-22T13:07:09;100402.34;;;15.63;60.82
6778;BME280;3426;52.244;10.534;2023-02-22T13:12:22;100387.44;;;17.12;56.61
6778;BME280;3426;52.244;10.534;2023-02-22T13:15:13;100383.00;;;16.80;56.95
6778;BME280;3426;52.244;10.534;2023-02-22T13:18:08;100385.50;;;16.29;58.92
6778;BME280;3426;52.244;10.534;2023-02-22T13:20:56;100380.84;;;16.42;58.34
6778;BME280;3426;52.244;10.534;2023-02-22T13:26:30;100373.06;;;16.39;58.62
6778;BME280;3426;52.244;10.534;2023-02-22T13:29:11;100367.66;;;16.82;56.87
6778;BME280;3426;52.244;10.534;2023-02-22T13:35:06;100363.31;;;16.49;57.82
6778;BME280;3426;52.244;10.534;2023-02-22T13:48:23;100345.81;;;16.77;57.10
6778;BME280;3426;52.244;10.534;2023-02-22T13:53:40;100343.84;;;15.94;59.00
6778;BME280;3426;52.244;10.534;2023-02-22T13:56:09;100337.84;;;16.45;57.46
6778;BME280;3426;52.244;10.534;2023-02-22T13:58:56;100338.53;;;16.47;58.26
6778;BME280;3426;52.244;10.534;2023-02-22T14:01:49;100327.94;;;16.25;59.54
6778;BME280;3426;52.244;10.534;2023-02-22T14:04:42;100333.06;;;16.69;57.55
6778;BME280;3426;52.244;10.534;2023-02-22T14:09:48;100326.72;;;16.82;57.48
6778;BME280;3426;52.244;10.534;2023-02-22T14:15:15;100330.28;;;16.39;58.17
6778;BME280;3426;52.244;10.534;2023-02-22T14:17:59;100329.94;;;16.64;58.35
6778;BME280;3426;52.244;10.534;2023-02-22T14:25:53;100325.31;;;16.46;58.23
6778;BME280;3426;52.244;10.534;2023-02-22T14:35:43;100322.97;;;16.52;58.18
6778;BME280;3426;52.244;10.534;2023-02-22T14:38:27;100320.97;;;16.01;59.17
6778;BME280;3426;52.244;10.534;2023-02-22T14:51:14;100303.34;;;16.63;58.74
6778;BME280;3426;52.244;10.534;2023-02-22T14:54:14;100303.47;;;16.40;59.36
6778;BME280;3426;52.244;10.534;2023-02-22T15:00:45;100304.19;;;16.10;60.41
6778;BME280;3426;52.244;10.534;2023-02-22T15:03:33;100296.41;;;15.64;61.89
6778;BME280;3426;52.244;10.534;2023-02-22T15:06:26;100297.50;;;15.61;61.84
6778;BME280;3426;52.244;10.534;2023-02-22T15:14:40;100298.88;;;15.22;63.46
6778;BME280;3426;52.244;10.534;2023-02-22T15:17:20;100287.19;;;15.57;62.79
6778;BME280;3426;52.244;10.534;2023-02-22T15:20:11;100290.88;;;15.33;63.28
6778;BME280;3426;52.244;10.534;2023-02-22T15:23:10;100296.91;;;15.24;63.48
6778;BME280;3426;52.244;10.534;2023-02-22T15:28:57;100292.44;;;15.25;63.69
6778;BME280;3426;52.244;10.534;2023-02-22T15:31:48;100286.38;;;15.34;62.89
6778;BME280;3426;52.244;10.534;2023-02-22T15:34:31;100297.03;;;15.23;63.60
6778;BME280;3426;52.244;10.534;2023-02-22T15:37:18;100288.06;;;15.35;63.33
6778;BME280;3426;52.244;10.534;2023-02-22T15:40:17;100290.13;;;15.31;63.34
6778;BME280;3426;52.244;10.534;2023-02-22T15:43:19;100281.41;;;15.29;63.88
6778;BME280;3426;52.244;10.534;2023-02-22T15:46:15;100282.25;;;14.96;63.89
6778;BME280;3426;52.244;10.534;2023-02-22T15:48:41;100282.72;;;15.01;63.95
6778;BME280;3426;52.244;10.534;2023-02-22T15:51:14;100283.56;;;15.24;63.68
6778;BME280;3426;52.244;10.534;2023-02-22T15:53:44;100284.31;;;15.15;64.13
6778;BME280;3426;52.244;10.534;2023-02-22T15:56:47;100277.66;;;14.87;64.62
6778;BME280;3426;52.244;10.534;2023-02-22T16:03:15;100280.41;;;14.74;65.09
6778;BME280;3426;52.244;10.534;2023-02-22T16:06:36;100281.38;;;14.84;64.45
6778;BME280;3426;52.244;10.534;2023-02-22T16:09:10;100285.50;;;14.77;64.42
6778;BME280;3426;52.244;10.534;2023-02-22T16:11:40;100289.97;;;14.66;64.71
6778;BME280;3426;52.244;10.534;2023-02-22T16:17:18;100283.78;;;14.54;65.56
6778;BME280;3426;52.244;10.534;2023-02-22T16:22:48;100298.19;;;14.03;67.00
6778;BME280;3426;52.244;10.534;2023-02-22T16:25:30;100283.78;;;14.54;65.86
6778;BME280;3426;52.244;10.534;2023-02-22T16:28:24;100284.75;;;14.53;66.05
6778;BME280;3426;52.244;10.534;2023-02-22T16:30:57;100293.94;;;14.25;66.62
6778;BME280;3426;52.244;10.534;2023-02-22T16:34:19;100285.72;;;14.28;66.79
6778;BME280;3426;52.244;10.534;2023-02-22T16:36:48;100292.28;;;14.46;66.28
6778;BME280;3426;52.244;10.534;2023-02-22T16:39:46;100289.63;;;14.35;66.16
6778;BME280;3426;52.244;10.534;2023-02-22T16:42:58;100286.97;;;14.11;66.52
6778;BME280;3426;52.244;10.534;2023-02-22T16:45:45;100290.13;;;14.16;66.93
6778;BME280;3426;52.244;10.534;2023-02-22T16:48:43;100287.72;;;13.89;67.98